This is the latest recevied weather packets stored in our database for station/object VA6NA. If no packets are shown the sender has not sent any weather packets the latest 10 day(s).
| Time | Temp. | Humidity | Pressure | Rain* | Wind** | Luminosity | Snow |
|---|---|---|---|---|---|---|---|
| 1777933219 | 12.78° C | 42% | 1020.1 hPa | 0 mm | - | - | - |
| 1777927843 | 12.78° C | 44% | 1020.5 hPa | 0 mm | - | - | - |
| 1777922431 | 10.56° C | 50% | 1020.8 hPa | 0 mm | - | - | - |
| 1777921833 | 10.56° C | 51% | 1021 hPa | 0 mm | - | - | - |
| 1777920637 | 10.56° C | 53% | 1021 hPa | 0 mm | - | - | - |
| 1777917018 | 8.89° C | 57% | 1021 hPa | 0 mm | - | - | - |
| 1777911629 | 7.78° C | 60% | 1021.1 hPa | 0 mm | - | - | - |
| 1777910420 | 8.33° C | 60% | 1021.1 hPa | 0 mm | - | - | - |
| 1777909833 | 7.78° C | 61% | 1021.1 hPa | 0 mm | - | - | - |
| 1777908026 | 5.56° C | 67% | 1021.3 hPa | 0 mm | - | - | - |
| 1777903828 | 4.44° C | 72% | 1021.1 hPa | 0 mm | - | - | - |
| 1777902618 | 3.89° C | 74% | 1021 hPa | 0 mm | - | - | - |
| 1777897828 | 3.33° C | 77% | 1020.4 hPa | 0 mm | - | - | - |
| 1777885849 | 3.33° C | 77% | 1019.6 hPa | 0 mm | - | - | - |
| 1777884625 | 3.89° C | 76% | 1019.4 hPa | 0 mm | - | - | - |
| 1777878616 | 6.11° C | 65% | 1018.7 hPa | 0 mm | - | - | - |
| 1777878032 | 6.11° C | 64% | 1018.7 hPa | 0 mm | - | - | - |
| 1777871421 | 10° C | 50% | 1017.4 hPa | 0 mm | - | - | - |
| 1777869624 | 10° C | 50% | 1017.2 hPa | 0 mm | - | - | - |
| 1777867830 | 10.56° C | 48% | 1016.9 hPa | 0 mm | - | - | - |
| 1777867231 | 10.56° C | 47% | 1016.7 hPa | 0 mm | - | - | - |
| 1777862430 | 12.78° C | 40% | 1015.5 hPa | 0 mm | - | - | - |
| 1777861871 | 13.33° C | 40% | 1015.5 hPa | 0 mm | - | - | - |
| 1777860029 | 13.33° C | 46% | 1015.3 hPa | 0 mm | - | - | - |
| 1777856418 | 14.44° C | 42% | 1014.8 hPa | 0 mm | - | - | - |
* Rain latest hour (hover to see other rain measurements)
** Current wind speed in m/s (hover to see current wind gust speed)